sensor_id;sensor_type;location;lat;lon;timestamp;temperature;humidity
66019;HTU21D;52787;51.084;5.816;2023-03-25T00:02:18;10.89;78.16
66019;HTU21D;52787;51.084;5.816;2023-03-25T00:04:51;10.87;77.28
66019;HTU21D;52787;51.084;5.816;2023-03-25T00:07:20;10.96;77.76
66019;HTU21D;52787;51.084;5.816;2023-03-25T00:09:47;10.97;77.85
66019;HTU21D;52787;51.084;5.816;2023-03-25T00:12:14;11.01;77.80
66019;HTU21D;52787;51.084;5.816;2023-03-25T00:14:41;11.02;77.31
66019;HTU21D;52787;51.084;5.816;2023-03-25T00:17:08;11.00;76.12
66019;HTU21D;52787;51.084;5.816;2023-03-25T00:19:34;10.99;76.37
66019;HTU21D;52787;51.084;5.816;2023-03-25T00:22:00;10.98;76.29
66019;HTU21D;52787;51.084;5.816;2023-03-25T00:24:26;10.96;75.17
66019;HTU21D;52787;51.084;5.816;2023-03-25T00:26:52;10.94;75.47
66019;HTU21D;52787;51.084;5.816;2023-03-25T00:29:19;10.88;75.57
66019;HTU21D;52787;51.084;5.816;2023-03-25T00:31:46;10.86;75.05
66019;HTU21D;52787;51.084;5.816;2023-03-25T00:34:11;10.87;75.22
66019;HTU21D;52787;51.084;5.816;2023-03-25T00:36:40;10.85;75.56
66019;HTU21D;52787;51.084;5.816;2023-03-25T00:39:08;10.83;75.34
66019;HTU21D;52787;51.084;5.816;2023-03-25T00:41:34;10.79;75.34
66019;HTU21D;52787;51.084;5.816;2023-03-25T00:44:02;10.75;75.47
66019;HTU21D;52787;51.084;5.816;2023-03-25T00:46:31;10.74;75.87
66019;HTU21D;52787;51.084;5.816;2023-03-25T00:48:57;10.75;75.48
66019;HTU21D;52787;51.084;5.816;2023-03-25T00:51:25;10.70;75.34
66019;HTU21D;52787;51.084;5.816;2023-03-25T00:53:54;10.68;75.94
66019;HTU21D;52787;51.084;5.816;2023-03-25T00:56:25;10.65;76.19
66019;HTU21D;52787;51.084;5.816;2023-03-25T00:58:51;10.60;76.73
66019;HTU21D;52787;51.084;5.816;2023-03-25T01:01:20;10.56;76.44
66019;HTU21D;52787;51.084;5.816;2023-03-25T01:03:49;10.57;77.00
66019;HTU21D;52787;51.084;5.816;2023-03-25T01:06:27;10.55;76.39
66019;HTU21D;52787;51.084;5.816;2023-03-25T01:09:02;10.54;76.87
66019;HTU21D;52787;51.084;5.816;2023-03-25T01:11:31;10.59;77.20
66019;HTU21D;52787;51.084;5.816;2023-03-25T01:13:59;10.62;77.18
66019;HTU21D;52787;51.084;5.816;2023-03-25T01:16:27;10.65;76.80
66019;HTU21D;52787;51.084;5.816;2023-03-25T01:18:54;10.59;77.12
66019;HTU21D;52787;51.084;5.816;2023-03-25T01:21:20;10.56;76.92
66019;HTU21D;52787;51.084;5.816;2023-03-25T01:23:46;10.58;77.18
66019;HTU21D;52787;51.084;5.816;2023-03-25T01:26:12;10.55;76.98
66019;HTU21D;52787;51.084;5.816;2023-03-25T01:28:39;10.54;77.25
66019;HTU21D;52787;51.084;5.816;2023-03-25T01:31:08;10.54;76.99
66019;HTU21D;52787;51.084;5.816;2023-03-25T01:33:36;10.51;77.40
66019;HTU21D;52787;51.084;5.816;2023-03-25T01:36:03;10.44;77.59
66019;HTU21D;52787;51.084;5.816;2023-03-25T01:38:29;10.40;77.50
66019;HTU21D;52787;51.084;5.816;2023-03-25T01:40:55;10.38;77.63
66019;HTU21D;52787;51.084;5.816;2023-03-25T01:43:22;10.35;77.65
66019;HTU21D;52787;51.084;5.816;2023-03-25T01:45:48;10.30;77.63
66019;HTU21D;52787;51.084;5.816;2023-03-25T01:48:37;10.26;78.18
66019;HTU21D;52787;51.084;5.816;2023-03-25T01:51:14;10.26;78.59
66019;HTU21D;52787;51.084;5.816;2023-03-25T01:53:42;10.22;78.27
66019;HTU21D;52787;51.084;5.816;2023-03-25T01:56:12;10.19;78.16
66019;HTU21D;52787;51.084;5.816;2023-03-25T01:58:43;10.20;78.12
66019;HTU21D;52787;51.084;5.816;2023-03-25T02:01:09;10.14;78.35
66019;HTU21D;52787;51.084;5.816;2023-03-25T02:03:40;10.10;78.73
66019;HTU21D;52787;51.084;5.816;2023-03-25T02:06:19;10.09;78.91
66019;HTU21D;52787;51.084;5.816;2023-03-25T02:08:53;10.06;79.03
66019;HTU21D;52787;51.084;5.816;2023-03-25T02:11:21;10.04;78.99
66019;HTU21D;52787;51.084;5.816;2023-03-25T02:13:50;10.03;79.04
66019;HTU21D;52787;51.084;5.816;2023-03-25T02:25:40;10.01;79.63
66019;HTU21D;52787;51.084;5.816;2023-03-25T02:28:33;10.05;79.76
66019;HTU21D;52787;51.084;5.816;2023-03-25T02:32:05;10.08;79.55
66019;HTU21D;52787;51.084;5.816;2023-03-25T02:45:32;10.21;78.63
66019;HTU21D;52787;51.084;5.816;2023-03-25T02:48:16;10.22;78.27
66019;HTU21D;52787;51.084;5.816;2023-03-25T02:50:55;10.22;78.51
66019;HTU21D;52787;51.084;5.816;2023-03-25T02:53:27;10.22;78.27
66019;HTU21D;52787;51.084;5.816;2023-03-25T02:56:04;10.18;78.46
66019;HTU21D;52787;51.084;5.816;2023-03-25T02:58:33;10.16;79.05
66019;HTU21D;52787;51.084;5.816;2023-03-25T03:01:00;10.18;79.42
66019;HTU21D;52787;51.084;5.816;2023-03-25T03:03:27;10.19;79.90
66019;HTU21D;52787;51.084;5.816;2023-03-25T03:06:00;10.19;79.98
66019;HTU21D;52787;51.084;5.816;2023-03-25T03:14:42;10.06;80.47
66019;HTU21D;52787;51.084;5.816;2023-03-25T03:20:24;10.09;80.36
66019;HTU21D;52787;51.084;5.816;2023-03-25T03:23:33;10.12;80.00
66019;HTU21D;52787;51.084;5.816;2023-03-25T03:28:50;10.15;79.29
66019;HTU21D;52787;51.084;5.816;2023-03-25T03:31:37;10.18;79.19
66019;HTU21D;52787;51.084;5.816;2023-03-25T03:34:30;10.20;78.38
66019;HTU21D;52787;51.084;5.816;2023-03-25T03:37:08;10.23;77.88
66019;HTU21D;52787;51.084;5.816;2023-03-25T03:39:37;10.19;77.40
66019;HTU21D;52787;51.084;5.816;2023-03-25T03:42:28;10.20;76.69
66019;HTU21D;52787;51.084;5.816;2023-03-25T03:45:57;10.25;76.99
66019;HTU21D;52787;51.084;5.816;2023-03-25T03:48:19;10.25;76.70
66019;HTU21D;52787;51.084;5.816;2023-03-25T03:50:55;10.31;76.14
66019;HTU21D;52787;51.084;5.816;2023-03-25T03:53:29;10.33;76.02
66019;HTU21D;52787;51.084;5.816;2023-03-25T03:56:17;10.31;75.77
66019;HTU21D;52787;51.084;5.816;2023-03-25T03:58:51;10.36;75.44
66019;HTU21D;52787;51.084;5.816;2023-03-25T04:01:25;10.36;74.71
66019;HTU21D;52787;51.084;5.816;2023-03-25T04:04:04;10.40;75.09
66019;HTU21D;52787;51.084;5.816;2023-03-25T04:12:30;10.31;76.03
66019;HTU21D;52787;51.084;5.816;2023-03-25T04:15:03;10.29;76.26
66019;HTU21D;52787;51.084;5.816;2023-03-25T04:17:30;10.24;77.36
66019;HTU21D;52787;51.084;5.816;2023-03-25T04:20:00;10.18;77.95
66019;HTU21D;52787;51.084;5.816;2023-03-25T04:22:31;10.14;77.71
66019;HTU21D;52787;51.084;5.816;2023-03-25T04:24:57;10.15;78.10
66019;HTU21D;52787;51.084;5.816;2023-03-25T04:27:25;10.16;77.32
66019;HTU21D;52787;51.084;5.816;2023-03-25T04:29:54;10.16;77.08
66019;HTU21D;52787;51.084;5.816;2023-03-25T04:32:22;10.18;77.41
66019;HTU21D;52787;51.084;5.816;2023-03-25T04:34:48;10.11;77.79
66019;HTU21D;52787;51.084;5.816;2023-03-25T04:37:14;10.09;78.27
66019;HTU21D;52787;51.084;5.816;2023-03-25T04:39:40;10.08;79.32
66019;HTU21D;52787;51.084;5.816;2023-03-25T04:42:05;10.03;79.53
66019;HTU21D;52787;51.084;5.816;2023-03-25T04:44:33;9.98;79.75
66019;HTU21D;52787;51.084;5.816;2023-03-25T04:47:04;9.95;79.73
66019;HTU21D;52787;51.084;5.816;2023-03-25T04:49:32;9.95;79.78
66019;HTU21D;52787;51.084;5.816;2023-03-25T04:51:57;10.00;79.30
66019;HTU21D;52787;51.084;5.816;2023-03-25T04:54:26;10.06;79.21
66019;HTU21D;52787;51.084;5.816;2023-03-25T04:56:52;10.09;78.15
66019;HTU21D;52787;51.084;5.816;2023-03-25T04:59:19;10.10;78.44
66019;HTU21D;52787;51.084;5.816;2023-03-25T05:01:46;10.12;77.73
66019;HTU21D;52787;51.084;5.816;2023-03-25T05:04:14;10.11;77.49
66019;HTU21D;52787;51.084;5.816;2023-03-25T05:06:48;10.10;77.98
66019;HTU21D;52787;51.084;5.816;2023-03-25T05:09:19;10.15;78.01
66019;HTU21D;52787;51.084;5.816;2023-03-25T05:11:50;10.16;77.27
66019;HTU21D;52787;51.084;5.816;2023-03-25T05:14:20;10.19;77.76
66019;HTU21D;52787;51.084;5.816;2023-03-25T05:16:47;10.21;78.14
66019;HTU21D;52787;51.084;5.816;2023-03-25T05:19:14;10.21;78.53
66019;HTU21D;52787;51.084;5.816;2023-03-25T05:21:41;10.16;78.81
66019;HTU21D;52787;51.084;5.816;2023-03-25T05:24:09;10.13;79.08
66019;HTU21D;52787;51.084;5.816;2023-03-25T05:26:37;10.08;79.29
66019;HTU21D;52787;51.084;5.816;2023-03-25T05:29:07;10.09;79.29
66019;HTU21D;52787;51.084;5.816;2023-03-25T05:31:41;10.08;79.28
66019;HTU21D;52787;51.084;5.816;2023-03-25T05:34:08;10.06;78.75
66019;HTU21D;52787;51.084;5.816;2023-03-25T05:36:34;10.05;79.17
66019;HTU21D;52787;51.084;5.816;2023-03-25T05:39:02;10.01;79.75
66019;HTU21D;52787;51.084;5.816;2023-03-25T05:41:29;10.05;79.94
66019;HTU21D;52787;51.084;5.816;2023-03-25T05:43:59;10.01;81.70
66019;HTU21D;52787;51.084;5.816;2023-03-25T05:46:27;9.94;82.73
66019;HTU21D;52787;51.084;5.816;2023-03-25T05:48:56;9.88;82.64
66019;HTU21D;52787;51.084;5.816;2023-03-25T05:51:25;9.81;83.33
66019;HTU21D;52787;51.084;5.816;2023-03-25T05:53:52;9.74;83.64
66019;HTU21D;52787;51.084;5.816;2023-03-25T05:56:20;9.74;83.42
66019;HTU21D;52787;51.084;5.816;2023-03-25T05:58:49;9.76;83.01
66019;HTU21D;52787;51.084;5.816;2023-03-25T06:01:17;9.80;82.78
66019;HTU21D;52787;51.084;5.816;2023-03-25T06:03:46;9.82;82.26
66019;HTU21D;52787;51.084;5.816;2023-03-25T06:06:12;9.89;81.91
66019;HTU21D;52787;51.084;5.816;2023-03-25T06:08:40;9.96;81.57
66019;HTU21D;52787;51.084;5.816;2023-03-25T06:11:07;9.99;80.93
66019;HTU21D;52787;51.084;5.816;2023-03-25T06:13:34;10.07;80.17
66019;HTU21D;52787;51.084;5.816;2023-03-25T06:16:07;10.12;79.62
66019;HTU21D;52787;51.084;5.816;2023-03-25T06:18:35;10.19;79.75
66019;HTU21D;52787;51.084;5.816;2023-03-25T06:21:02;10.24;79.55
66019;HTU21D;52787;51.084;5.816;2023-03-25T06:23:30;10.29;78.42
66019;HTU21D;52787;51.084;5.816;2023-03-25T06:26:00;10.34;78.24
66019;HTU21D;52787;51.084;5.816;2023-03-25T06:28:26;10.35;77.64
66019;HTU21D;52787;51.084;5.816;2023-03-25T06:30:52;10.40;77.60
66019;HTU21D;52787;51.084;5.816;2023-03-25T06:33:18;10.42;76.70
66019;HTU21D;52787;51.084;5.816;2023-03-25T06:35:47;10.51;76.61
66019;HTU21D;52787;51.084;5.816;2023-03-25T06:38:20;10.51;76.48
66019;HTU21D;52787;51.084;5.816;2023-03-25T06:40:46;10.52;76.05
66019;HTU21D;52787;51.084;5.816;2023-03-25T06:43:12;10.48;75.34
66019;HTU21D;52787;51.084;5.816;2023-03-25T06:45:38;10.43;75.89
66019;HTU21D;52787;51.084;5.816;2023-03-25T06:48:04;10.38;75.85
66019;HTU21D;52787;51.084;5.816;2023-03-25T06:50:31;10.36;76.63
66019;HTU21D;52787;51.084;5.816;2023-03-25T06:52:57;10.34;76.32
66019;HTU21D;52787;51.084;5.816;2023-03-25T06:55:23;10.27;76.34
66019;HTU21D;52787;51.084;5.816;2023-03-25T06:57:49;10.26;76.46
66019;HTU21D;52787;51.084;5.816;2023-03-25T07:00:15;10.25;77.08
66019;HTU21D;52787;51.084;5.816;2023-03-25T07:02:47;10.26;76.54
66019;HTU21D;52787;51.084;5.816;2023-03-25T07:05:13;10.26;76.66
66019;HTU21D;52787;51.084;5.816;2023-03-25T07:07:39;10.28;76.75
66019;HTU21D;52787;51.084;5.816;2023-03-25T07:10:05;10.35;76.66
66019;HTU21D;52787;51.084;5.816;2023-03-25T07:12:33;10.42;76.63
66019;HTU21D;52787;51.084;5.816;2023-03-25T07:15:00;10.49;76.22
66019;HTU21D;52787;51.084;5.816;2023-03-25T07:17:25;10.51;75.84
66019;HTU21D;52787;51.084;5.816;2023-03-25T07:19:51;10.58;75.60
66019;HTU21D;52787;51.084;5.816;2023-03-25T07:22:17;10.67;75.70
66019;HTU21D;52787;51.084;5.816;2023-03-25T07:24:43;10.81;74.97
66019;HTU21D;52787;51.084;5.816;2023-03-25T07:27:10;10.79;74.49
66019;HTU21D;52787;51.084;5.816;2023-03-25T07:29:38;10.80;74.53
66019;HTU21D;52787;51.084;5.816;2023-03-25T07:32:04;10.88;74.24
66019;HTU21D;52787;51.084;5.816;2023-03-25T07:34:30;11.00;73.11
66019;HTU21D;52787;51.084;5.816;2023-03-25T07:36:56;11.04;72.64
66019;HTU21D;52787;51.084;5.816;2023-03-25T07:39:23;11.09;72.87
66019;HTU21D;52787;51.084;5.816;2023-03-25T07:41:53;11.11;73.38
66019;HTU21D;52787;51.084;5.816;2023-03-25T07:44:20;11.16;73.31
66019;HTU21D;52787;51.084;5.816;2023-03-25T07:46:46;11.13;72.38
66019;HTU21D;52787;51.084;5.816;2023-03-25T07:49:14;11.15;72.39
66019;HTU21D;52787;51.084;5.816;2023-03-25T07:51:42;11.22;72.64
66019;HTU21D;52787;51.084;5.816;2023-03-25T07:54:09;11.24;72.65
66019;HTU21D;52787;51.084;5.816;2023-03-25T07:56:34;11.28;71.77
66019;HTU21D;52787;51.084;5.816;2023-03-25T07:59:01;11.27;72.26
66019;HTU21D;52787;51.084;5.816;2023-03-25T08:01:26;11.33;72.09
66019;HTU21D;52787;51.084;5.816;2023-03-25T08:03:52;11.34;70.79
66019;HTU21D;52787;51.084;5.816;2023-03-25T08:06:18;11.42;70.46
66019;HTU21D;52787;51.084;5.816;2023-03-25T08:08:44;11.42;70.00
66019;HTU21D;52787;51.084;5.816;2023-03-25T08:11:10;11.36;70.23
66019;HTU21D;52787;51.084;5.816;2023-03-25T08:13:35;11.34;70.69
66019;HTU21D;52787;51.084;5.816;2023-03-25T08:16:01;11.33;70.61
66019;HTU21D;52787;51.084;5.816;2023-03-25T08:18:28;11.45;70.64
66019;HTU21D;52787;51.084;5.816;2023-03-25T08:20:54;11.56;70.42
66019;HTU21D;52787;51.084;5.816;2023-03-25T08:23:20;11.64;69.44
66019;HTU21D;52787;51.084;5.816;2023-03-25T08:25:49;11.67;68.35
66019;HTU21D;52787;51.084;5.816;2023-03-25T08:28:17;11.77;69.26
66019;HTU21D;52787;51.084;5.816;2023-03-25T08:30:49;11.87;68.36
66019;HTU21D;52787;51.084;5.816;2023-03-25T08:33:20;11.97;69.23
66019;HTU21D;52787;51.084;5.816;2023-03-25T08:36:00;12.07;68.63
66019;HTU21D;52787;51.084;5.816;2023-03-25T08:38:27;12.13;67.29
66019;HTU21D;52787;51.084;5.816;2023-03-25T08:40:59;12.16;68.40
66019;HTU21D;52787;51.084;5.816;2023-03-25T08:43:25;12.11;67.79
66019;HTU21D;52787;51.084;5.816;2023-03-25T08:45:52;12.03;67.94
66019;HTU21D;52787;51.084;5.816;2023-03-25T08:48:18;11.86;68.74
66019;HTU21D;52787;51.084;5.816;2023-03-25T08:50:44;11.76;68.87
66019;HTU21D;52787;51.084;5.816;2023-03-25T08:53:10;11.77;69.97
66019;HTU21D;52787;51.084;5.816;2023-03-25T08:55:36;11.86;69.18
66019;HTU21D;52787;51.084;5.816;2023-03-25T08:58:04;11.91;69.28
66019;HTU21D;52787;51.084;5.816;2023-03-25T09:00:30;11.86;69.42
66019;HTU21D;52787;51.084;5.816;2023-03-25T09:02:56;11.98;68.69
66019;HTU21D;52787;51.084;5.816;2023-03-25T09:05:24;12.03;68.37
66019;HTU21D;52787;51.084;5.816;2023-03-25T09:07:50;12.11;68.73
66019;HTU21D;52787;51.084;5.816;2023-03-25T09:10:16;12.15;68.90
66019;HTU21D;52787;51.084;5.816;2023-03-25T09:12:43;12.18;68.02
66019;HTU21D;52787;51.084;5.816;2023-03-25T09:15:09;12.19;67.85
66019;HTU21D;52787;51.084;5.816;2023-03-25T09:17:37;12.17;68.35
66019;HTU21D;52787;51.084;5.816;2023-03-25T09:20:05;12.08;69.72
66019;HTU21D;52787;51.084;5.816;2023-03-25T09:22:35;12.11;70.16
66019;HTU21D;52787;51.084;5.816;2023-03-25T09:25:01;12.19;70.05
66019;HTU21D;52787;51.084;5.816;2023-03-25T09:27:27;12.23;69.45
66019;HTU21D;52787;51.084;5.816;2023-03-25T09:29:52;12.19;69.36
66019;HTU21D;52787;51.084;5.816;2023-03-25T09:32:18;12.22;69.10
66019;HTU21D;52787;51.084;5.816;2023-03-25T09:34:44;12.31;68.50
66019;HTU21D;52787;51.084;5.816;2023-03-25T09:37:10;12.40;68.62
66019;HTU21D;52787;51.084;5.816;2023-03-25T09:39:36;12.49;68.80
66019;HTU21D;52787;51.084;5.816;2023-03-25T09:45:35;12.63;66.69
66019;HTU21D;52787;51.084;5.816;2023-03-25T09:51:02;12.79;65.97
66019;HTU21D;52787;51.084;5.816;2023-03-25T09:53:53;12.82;65.73
66019;HTU21D;52787;51.084;5.816;2023-03-25T09:56:26;12.95;65.46
66019;HTU21D;52787;51.084;5.816;2023-03-25T09:59:16;13.16;65.03
66019;HTU21D;52787;51.084;5.816;2023-03-25T10:02:12;13.19;64.82
66019;HTU21D;52787;51.084;5.816;2023-03-25T10:07:43;13.29;62.92
66019;HTU21D;52787;51.084;5.816;2023-03-25T10:10:21;13.48;62.24
66019;HTU21D;52787;51.084;5.816;2023-03-25T10:13:32;13.59;61.32
66019;HTU21D;52787;51.084;5.816;2023-03-25T10:24:23;15.16;57.26
66019;HTU21D;52787;51.084;5.816;2023-03-25T10:27:10;14.80;58.80
66019;HTU21D;52787;51.084;5.816;2023-03-25T10:32:43;14.07;59.03
66019;HTU21D;52787;51.084;5.816;2023-03-25T10:35:25;13.83;61.43
66019;HTU21D;52787;51.084;5.816;2023-03-25T10:37:59;13.94;61.66
66019;HTU21D;52787;51.084;5.816;2023-03-25T10:40:38;15.01;58.19
66019;HTU21D;52787;51.084;5.816;2023-03-25T10:43:39;15.90;54.56
66019;HTU21D;52787;51.084;5.816;2023-03-25T10:46:32;15.59;55.26
66019;HTU21D;52787;51.084;5.816;2023-03-25T10:49:02;15.49;55.72
66019;HTU21D;52787;51.084;5.816;2023-03-25T10:51:33;15.82;54.25
66019;HTU21D;52787;51.084;5.816;2023-03-25T10:54:00;15.55;54.55
66019;HTU21D;52787;51.084;5.816;2023-03-25T10:56:36;15.11;57.05
66019;HTU21D;52787;51.084;5.816;2023-03-25T11:01:56;15.07;59.73
66019;HTU21D;52787;51.084;5.816;2023-03-25T11:04:36;15.42;58.12
66019;HTU21D;52787;51.084;5.816;2023-03-25T11:07:17;14.94;59.38
66019;HTU21D;52787;51.084;5.816;2023-03-25T11:09:44;14.14;63.49
66019;HTU21D;52787;51.084;5.816;2023-03-25T11:12:10;13.53;67.61
66019;HTU21D;52787;51.084;5.816;2023-03-25T11:17:17;12.74;73.24
66019;HTU21D;52787;51.084;5.816;2023-03-25T11:22:24;12.17;73.92
66019;HTU21D;52787;51.084;5.816;2023-03-25T11:27:40;11.73;77.28
66019;HTU21D;52787;51.084;5.816;2023-03-25T11:30:16;11.64;77.49
66019;HTU21D;52787;51.084;5.816;2023-03-25T11:32:56;11.71;77.20
66019;HTU21D;52787;51.084;5.816;2023-03-25T11:35:26;11.86;77.01
66019;HTU21D;52787;51.084;5.816;2023-03-25T11:37:56;12.21;76.51
66019;HTU21D;52787;51.084;5.816;2023-03-25T11:40:29;12.43;75.76
66019;HTU21D;52787;51.084;5.816;2023-03-25T11:42:58;12.58;75.26
66019;HTU21D;52787;51.084;5.816;2023-03-25T11:45:35;12.62;74.40
66019;HTU21D;52787;51.084;5.816;2023-03-25T11:48:21;12.71;74.96
66019;HTU21D;52787;51.084;5.816;2023-03-25T11:50:54;12.86;75.54
66019;HTU21D;52787;51.084;5.816;2023-03-25T11:53:25;12.88;74.92
66019;HTU21D;52787;51.084;5.816;2023-03-25T11:56:02;12.79;75.29
66019;HTU21D;52787;51.084;5.816;2023-03-25T11:58:34;12.61;73.42
66019;HTU21D;52787;51.084;5.816;2023-03-25T12:01:16;12.28;75.00
66019;HTU21D;52787;51.084;5.816;2023-03-25T12:04:14;11.89;76.54
66019;HTU21D;52787;51.084;5.816;2023-03-25T12:07:07;11.78;75.85
66019;HTU21D;52787;51.084;5.816;2023-03-25T12:09:35;11.86;76.43
66019;HTU21D;52787;51.084;5.816;2023-03-25T12:23:02;11.91;75.53
66019;HTU21D;52787;51.084;5.816;2023-03-25T12:32:00;11.99;72.74
66019;HTU21D;52787;51.084;5.816;2023-03-25T12:35:27;12.01;74.29
66019;HTU21D;52787;51.084;5.816;2023-03-25T12:38:13;11.92;77.02
66019;HTU21D;52787;51.084;5.816;2023-03-25T12:40:54;11.79;77.80
66019;HTU21D;52787;51.084;5.816;2023-03-25T12:43:56;11.58;79.71
66019;HTU21D;52787;51.084;5.816;2023-03-25T12:46:41;11.68;80.49
66019;HTU21D;52787;51.084;5.816;2023-03-25T12:52:08;12.88;73.85
66019;HTU21D;52787;51.084;5.816;2023-03-25T12:57:55;12.70;72.64
66019;HTU21D;52787;51.084;5.816;2023-03-25T13:00:46;12.71;74.06
66019;HTU21D;52787;51.084;5.816;2023-03-25T13:03:50;13.69;72.03
66019;HTU21D;52787;51.084;5.816;2023-03-25T13:06:41;15.32;67.05
66019;HTU21D;52787;51.084;5.816;2023-03-25T13:09:24;15.85;62.81
66019;HTU21D;52787;51.084;5.816;2023-03-25T13:14:57;15.33;64.43
66019;HTU21D;52787;51.084;5.816;2023-03-25T13:17:39;15.34;63.71
66019;HTU21D;52787;51.084;5.816;2023-03-25T13:20:09;15.30;63.12
66019;HTU21D;52787;51.084;5.816;2023-03-25T13:22:40;14.84;63.92
66019;HTU21D;52787;51.084;5.816;2023-03-25T13:25:40;14.19;67.01
66019;HTU21D;52787;51.084;5.816;2023-03-25T13:28:17;13.81;69.33
66019;HTU21D;52787;51.084;5.816;2023-03-25T13:30:49;13.86;69.52
66019;HTU21D;52787;51.084;5.816;2023-03-25T13:33:19;14.23;68.38
66019;HTU21D;52787;51.084;5.816;2023-03-25T13:35:51;14.47;67.17
66019;HTU21D;52787;51.084;5.816;2023-03-25T13:38:30;14.27;67.40
66019;HTU21D;52787;51.084;5.816;2023-03-25T13:41:11;14.21;69.78
66019;HTU21D;52787;51.084;5.816;2023-03-25T13:46:20;14.82;67.93
66019;HTU21D;52787;51.084;5.816;2023-03-25T13:51:31;14.63;66.86
66019;HTU21D;52787;51.084;5.816;2023-03-25T14:00:31;15.32;63.01
66019;HTU21D;52787;51.084;5.816;2023-03-25T14:06:21;16.82;56.53
66019;HTU21D;52787;51.084;5.816;2023-03-25T14:12:15;15.22;59.92
66019;HTU21D;52787;51.084;5.816;2023-03-25T14:15:17;14.33;64.01
66019;HTU21D;52787;51.084;5.816;2023-03-25T14:17:47;13.75;66.49
66019;HTU21D;52787;51.084;5.816;2023-03-25T14:20:35;13.24;67.47
66019;HTU21D;52787;51.084;5.816;2023-03-25T14:23:06;12.97;70.42
66019;HTU21D;52787;51.084;5.816;2023-03-25T14:25:41;12.56;72.00
66019;HTU21D;52787;51.084;5.816;2023-03-25T14:28:37;11.59;77.90
66019;HTU21D;52787;51.084;5.816;2023-03-25T14:31:24;10.72;79.79
66019;HTU21D;52787;51.084;5.816;2023-03-25T14:37:08;11.66;82.62
66019;HTU21D;52787;51.084;5.816;2023-03-25T14:44:33;15.16;64.82
66019;HTU21D;52787;51.084;5.816;2023-03-25T14:52:43;14.15;69.20
66019;HTU21D;52787;51.084;5.816;2023-03-25T14:55:32;13.83;71.32
66019;HTU21D;52787;51.084;5.816;2023-03-25T14:58:25;13.68;72.42
66019;HTU21D;52787;51.084;5.816;2023-03-25T15:01:01;13.59;71.92
66019;HTU21D;52787;51.084;5.816;2023-03-25T15:03:40;13.44;73.73
66019;HTU21D;52787;51.084;5.816;2023-03-25T15:06:31;13.63;72.16
66019;HTU21D;52787;51.084;5.816;2023-03-25T15:09:02;14.24;73.32
66019;HTU21D;52787;51.084;5.816;2023-03-25T15:11:37;15.03;69.78
66019;HTU21D;52787;51.084;5.816;2023-03-25T15:14:21;16.30;64.34
66019;HTU21D;52787;51.084;5.816;2023-03-25T15:17:08;17.93;58.25
66019;HTU21D;52787;51.084;5.816;2023-03-25T15:22:33;20.34;49.24
66019;HTU21D;52787;51.084;5.816;2023-03-25T15:25:02;21.27;44.32
66019;HTU21D;52787;51.084;5.816;2023-03-25T15:27:55;21.83;45.32
66019;HTU21D;52787;51.084;5.816;2023-03-25T15:34:12;23.14;41.89
66019;HTU21D;52787;51.084;5.816;2023-03-25T15:55:38;15.31;59.67
66019;HTU21D;52787;51.084;5.816;2023-03-25T15:58:42;14.41;63.81
66019;HTU21D;52787;51.084;5.816;2023-03-25T16:01:31;13.81;64.30
66019;HTU21D;52787;51.084;5.816;2023-03-25T16:04:15;13.32;67.04
66019;HTU21D;52787;51.084;5.816;2023-03-25T16:07:04;12.87;72.25
66019;HTU21D;52787;51.084;5.816;2023-03-25T16:09:37;12.78;73.90
66019;HTU21D;52787;51.084;5.816;2023-03-25T16:12:19;14.47;68.65
66019;HTU21D;52787;51.084;5.816;2023-03-25T16:14:50;16.10;61.13
66019;HTU21D;52787;51.084;5.816;2023-03-25T16:17:20;16.69;57.53
66019;HTU21D;52787;51.084;5.816;2023-03-25T16:19:56;16.71;57.51
66019;HTU21D;52787;51.084;5.816;2023-03-25T16:22:26;16.71;59.25
66019;HTU21D;52787;51.084;5.816;2023-03-25T16:24:55;16.84;57.58
66019;HTU21D;52787;51.084;5.816;2023-03-25T16:27:35;17.14;57.45
66019;HTU21D;52787;51.084;5.816;2023-03-25T16:30:28;17.54;54.07
66019;HTU21D;52787;51.084;5.816;2023-03-25T16:35:42;16.10;59.31
66019;HTU21D;52787;51.084;5.816;2023-03-25T16:38:19;16.13;60.47
66019;HTU21D;52787;51.084;5.816;2023-03-25T16:40:46;15.93;60.09
66019;HTU21D;52787;51.084;5.816;2023-03-25T16:43:17;15.49;61.74
66019;HTU21D;52787;51.084;5.816;2023-03-25T16:45:48;15.07;63.18
66019;HTU21D;52787;51.084;5.816;2023-03-25T16:48:40;14.59;64.84
66019;HTU21D;52787;51.084;5.816;2023-03-25T16:51:14;14.21;65.59
66019;HTU21D;52787;51.084;5.816;2023-03-25T16:53:43;13.99;66.96
66019;HTU21D;52787;51.084;5.816;2023-03-25T17:01:20;13.81;68.49
66019;HTU21D;52787;51.084;5.816;2023-03-25T17:03:48;13.78;69.13
66019;HTU21D;52787;51.084;5.816;2023-03-25T17:06:31;13.71;69.71
66019;HTU21D;52787;51.084;5.816;2023-03-25T17:09:09;13.51;67.34
66019;HTU21D;52787;51.084;5.816;2023-03-25T17:11:40;13.30;64.93
66019;HTU21D;52787;51.084;5.816;2023-03-25T17:14:11;12.89;65.89
66019;HTU21D;52787;51.084;5.816;2023-03-25T17:16:44;12.64;67.32
66019;HTU21D;52787;51.084;5.816;2023-03-25T17:19:13;12.45;69.70
66019;HTU21D;52787;51.084;5.816;2023-03-25T17:22:11;12.34;71.21
66019;HTU21D;52787;51.084;5.816;2023-03-25T17:24:58;12.31;71.41
66019;HTU21D;52787;51.084;5.816;2023-03-25T17:27:39;12.34;72.11
66019;HTU21D;52787;51.084;5.816;2023-03-25T17:30:42;12.43;72.28
66019;HTU21D;52787;51.084;5.816;2023-03-25T17:33:17;12.46;72.74
66019;HTU21D;52787;51.084;5.816;2023-03-25T17:35:55;12.50;73.48
66019;HTU21D;52787;51.084;5.816;2023-03-25T17:38:34;12.51;73.35
66019;HTU21D;52787;51.084;5.816;2023-03-25T17:41:07;12.56;73.78
66019;HTU21D;52787;51.084;5.816;2023-03-25T17:43:40;12.63;73.63
66019;HTU21D;52787;51.084;5.816;2023-03-25T17:46:08;12.65;73.88
66019;HTU21D;52787;51.084;5.816;2023-03-25T17:48:35;12.63;75.16
66019;HTU21D;52787;51.084;5.816;2023-03-25T17:51:01;12.55;74.03
66019;HTU21D;52787;51.084;5.816;2023-03-25T17:53:27;12.44;74.19
66019;HTU21D;52787;51.084;5.816;2023-03-25T17:55:55;12.31;74.71
66019;HTU21D;52787;51.084;5.816;2023-03-25T17:58:24;12.15;73.78
66019;HTU21D;52787;51.084;5.816;2023-03-25T18:00:50;11.98;72.83
66019;HTU21D;52787;51.084;5.816;2023-03-25T18:03:22;11.86;73.34
66019;HTU21D;52787;51.084;5.816;2023-03-25T18:05:49;11.81;73.63
66019;HTU21D;52787;51.084;5.816;2023-03-25T18:08:21;11.74;74.38
66019;HTU21D;52787;51.084;5.816;2023-03-25T18:10:49;11.63;74.90
66019;HTU21D;52787;51.084;5.816;2023-03-25T18:13:15;11.51;75.88
66019;HTU21D;52787;51.084;5.816;2023-03-25T18:15:42;11.47;75.99
66019;HTU21D;52787;51.084;5.816;2023-03-25T18:18:23;11.45;76.31
66019;HTU21D;52787;51.084;5.816;2023-03-25T18:20:52;11.44;76.40
66019;HTU21D;52787;51.084;5.816;2023-03-25T18:23:21;11.45;76.10
66019;HTU21D;52787;51.084;5.816;2023-03-25T18:25:47;11.53;75.86
66019;HTU21D;52787;51.084;5.816;2023-03-25T18:28:14;11.57;74.98
66019;HTU21D;52787;51.084;5.816;2023-03-25T18:30:53;11.63;74.80
66019;HTU21D;52787;51.084;5.816;2023-03-25T18:33:23;11.70;74.63
66019;HTU21D;52787;51.084;5.816;2023-03-25T18:35:49;11.73;74.66